Time;durP1;ratioP1;P1;durP2;ratioP2;P2;SDS_P1;SDS_P2;PMS_P1;PMS_P2;Temp;Humidity;BMP_temperature;BMP_pressure;BME280_temperature;BME280_humidity;BME280_pressure;Samples;Min_cycle;Max_cycle;Signal;HPM_P1;HPM_P2
2023/05/13 00:02:26;;;;;;;12.55;9.18;;;12.70;99.90;;;;;;10441855;28;20218;-79
2023/05/13 00:08:01;;;;;;;13.43;8.05;;;12.70;99.90;;;;;;10392058;28;20254;-78
2023/05/13 00:13:22;;;;;;;14.82;8.70;;;12.70;99.90;;;;;;10373085;28;20201;-79
2023/05/13 00:18:45;;;;;;;13.80;8.90;;;12.60;99.90;;;;;;10400355;28;20287;-79
2023/05/13 00:24:06;;;;;;;16.27;8.93;;;12.50;99.90;;;;;;10400115;28;20196;-78
2023/05/13 00:29:27;;;;;;;13.55;8.77;;;12.40;99.90;;;;;;10381423;28;20744;-78
2023/05/13 00:34:48;;;;;;;11.95;7.85;;;12.30;99.90;;;;;;10399452;28;20195;-79
2023/05/13 00:40:15;;;;;;;12.50;8.48;;;;;;;;;;10395175;28;20223;-79
2023/05/13 00:45:37;;;;;;;14.63;7.68;;;12.30;1.00;;;;;;10357333;28;20204;-79
2023/05/13 00:50:58;;;;;;;12.93;7.88;;;12.40;99.90;;;;;;10358572;28;20550;-79
2023/05/13 00:56:23;;;;;;;9.80;7.35;;;12.40;99.90;;;;;;10379707;28;20205;-79
2023/05/13 01:01:51;;;;;;;15.52;8.43;;;;;;;;;;10438854;28;20223;-79
2023/05/13 01:07:41;;;;;;;12.63;8.18;;;12.30;1.00;;;;;;10393990;28;20283;-77
2023/05/13 01:13:16;;;;;;;12.52;8.13;;;12.30;1.00;;;;;;10377883;28;20295;-76
2023/05/13 01:18:42;;;;;;;11.05;7.65;;;12.10;1.00;;;;;;10357533;28;20219;-76
2023/05/13 01:24:03;;;;;;;10.77;6.40;;;12.10;1.00;;;;;;11218398;23;20248;-76
2023/05/13 01:36:02;;;;;;;13.20;6.95;;;12.10;1.00;;;;;;10275286;29;20184;-76
2023/05/13 01:41:23;;;;;;;12.43;6.95;;;12.00;1.00;;;;;;10285092;28;20233;-76
2023/05/13 01:46:46;;;;;;;14.85;7.70;;;12.00;1.00;;;;;;10273533;28;20276;-75
2023/05/13 01:58:25;;;;;;;11.02;7.35;;;11.80;1.00;;;;;;10272796;28;20201;-76
2023/05/13 02:03:48;;;;;;;12.68;7.80;;;11.70;1.00;;;;;;10273967;28;20222;-79
2023/05/13 02:09:09;;;;;;;16.33;7.93;;;11.60;1.00;;;;;;10277664;28;20499;-75
2023/05/13 02:14:32;;;;;;;13.13;8.05;;;11.80;1.00;;;;;;10274612;29;20200;-76
2023/05/13 02:19:55;;;;;;;11.20;7.22;;;11.60;1.00;;;;;;10286111;28;20580;-76
2023/05/13 02:25:16;;;;;;;12.88;8.57;;;11.50;1.00;;;;;;10309974;28;20402;-76
2023/05/13 02:30:37;;;;;;;10.63;7.70;;;11.50;1.00;;;;;;10308640;28;20205;-76
2023/05/13 02:35:58;;;;;;;12.63;7.75;;;11.40;1.00;;;;;;10308014;28;20554;-76
2023/05/13 02:41:21;;;;;;;13.15;8.18;;;11.40;1.00;;;;;;10308682;28;20245;-78
2023/05/13 02:46:44;;;;;;;10.25;6.90;;;11.40;1.00;;;;;;10308175;28;20220;-78
2023/05/13 02:52:05;;;;;;;13.60;7.60;;;11.30;99.90;;;;;;10314411;28;20207;-75
2023/05/13 02:57:29;;;;;;;14.38;8.68;;;11.20;1.00;;;;;;10307859;28;20244;-75
2023/05/13 03:02:50;;;;;;;13.35;8.20;;;11.20;1.00;;;;;;10276805;28;20541;-76
2023/05/13 03:08:12;;;;;;;12.15;8.38;;;11.00;99.90;;;;;;10267050;28;20285;-75
2023/05/13 03:13:33;;;;;;;12.15;8.63;;;11.10;1.00;;;;;;10314071;28;20191;-79
2023/05/13 03:18:54;;;;;;;15.48;8.48;;;11.10;1.00;;;;;;10306937;28;20329;-76
2023/05/13 03:24:16;;;;;;;13.38;7.75;;;11.20;1.00;;;;;;10321901;28;20290;-75
2023/05/13 03:29:36;;;;;;;12.43;7.80;;;11.30;1.00;;;;;;10305773;28;20213;-75
2023/05/13 03:34:59;;;;;;;10.23;6.88;;;11.30;1.00;;;;;;10321675;28;20199;-75
2023/05/13 03:40:23;;;;;;;9.73;7.72;;;11.40;1.00;;;;;;10293181;28;20235;-76
2023/05/13 03:45:47;;;;;;;11.40;7.28;;;11.40;1.00;;;;;;10306519;28;20384;-77
2023/05/13 03:51:11;;;;;;;14.85;7.85;;;11.50;1.00;;;;;;10313956;28;20206;-76
2023/05/13 03:56:33;;;;;;;13.90;7.80;;;11.60;1.00;;;;;;10319733;28;20269;-76
2023/05/13 04:01:55;;;;;;;12.18;7.43;;;11.60;1.00;;;;;;10317352;28;20227;-77
2023/05/13 04:07:16;;;;;;;11.23;6.93;;;11.70;1.00;;;;;;10277291;28;20513;-76
2023/05/13 04:12:39;;;;;;;12.20;6.78;;;11.80;1.00;;;;;;10320257;28;20197;-77
2023/05/13 04:18:00;;;;;;;10.02;6.47;;;11.80;1.00;;;;;;10313385;28;20433;-79
2023/05/13 04:23:21;;;;;;;14.02;7.50;;;11.90;1.00;;;;;;10319648;28;20296;-76
2023/05/13 04:28:42;;;;;;;9.23;6.82;;;12.10;1.00;;;;;;10277871;28;20204;-77
2023/05/13 04:34:03;;;;;;;8.05;6.38;;;12.30;1.00;;;;;;10252580;28;20220;-78
2023/05/13 04:39:25;;;;;;;8.43;5.80;;;12.50;1.00;;;;;;10276983;28;20295;-78
2023/05/13 04:44:46;;;;;;;8.75;6.07;;;12.70;1.00;;;;;;10278017;29;20195;-75
2023/05/13 04:50:08;;;;;;;7.45;5.43;;;12.90;1.00;;;;;;10314893;28;20440;-77
2023/05/13 04:55:29;;;;;;;6.93;4.90;;;13.10;1.00;;;;;;10290881;28;20213;-78
2023/05/13 05:00:51;;;;;;;9.77;5.57;;;13.30;1.00;;;;;;10276149;28;20228;-78
2023/05/13 05:06:12;;;;;;;7.50;5.07;;;13.50;1.00;;;;;;10270825;29;20507;-78
2023/05/13 05:11:34;;;;;;;7.38;5.30;;;13.80;1.00;;;;;;10295093;28;20252;-76
2023/05/13 05:16:55;;;;;;;7.70;5.32;;;14.00;1.00;;;;;;10316880;28;20416;-75
2023/05/13 05:22:17;;;;;;;7.30;5.15;;;14.20;1.00;;;;;;10310972;28;20230;-76
2023/05/13 05:27:38;;;;;;;5.93;4.55;;;14.40;1.00;;;;;;10306379;28;20311;-77
2023/05/13 05:33:00;;;;;;;6.55;4.43;;;14.60;1.00;;;;;;10299008;28;20257;-77
2023/05/13 05:38:24;;;;;;;6.75;4.40;;;14.90;1.00;;;;;;10275305;28;20201;-76
2023/05/13 05:43:46;;;;;;;5.85;4.22;;;15.20;99.90;;;;;;10275659;29;20530;-78
2023/05/13 05:49:07;;;;;;;7.03;3.58;;;15.50;99.90;;;;;;10310688;28;20358;-78
2023/05/13 05:54:29;;;;;;;4.13;2.78;;;15.80;99.90;;;;;;10311384;28;20217;-76
2023/05/13 05:59:51;;;;;;;12.77;3.70;;;16.10;99.90;;;;;;10315226;28;20286;-76
2023/05/13 06:05:13;;;;;;;8.05;4.10;;;;;;;;;;10279784;28;20209;-79
2023/05/13 06:10:37;;;;;;;13.30;4.63;;;16.90;99.90;;;;;;10314818;28;20198;-78
2023/05/13 06:15:58;;;;;;;8.18;3.13;;;17.10;99.90;;;;;;10308930;28;20237;-77
2023/05/13 06:21:20;;;;;;;10.52;3.95;;;;;;;;;;10315092;28;20220;-77
2023/05/13 06:26:43;;;;;;;7.07;3.00;;;18.00;99.90;;;;;;10308052;28;20234;-77
2023/05/13 06:32:07;;;;;;;8.70;3.00;;;18.40;99.90;;;;;;10303310;28;20221;-77
2023/05/13 06:37:28;;;;;;;8.68;2.70;;;19.00;99.90;;;;;;10308456;28;20198;-79
2023/05/13 06:42:49;;;;;;;6.68;2.55;;;19.90;99.90;;;;;;10313546;28;20268;-76
2023/05/13 06:48:21;;;;;;;5.65;3.13;;;21.20;1.00;;;;;;10303845;28;20202;-78
2023/05/13 06:53:42;;;;;;;6.70;2.90;;;21.60;99.90;;;;;;10312877;28;20202;-76
2023/05/13 06:59:03;;;;;;;6.07;2.55;;;22.40;99.90;;;;;;10310639;28;20206;-76
2023/05/13 07:04:24;;;;;;;11.82;2.60;;;22.90;99.90;;;;;;10293408;28;20202;-77
2023/05/13 07:09:45;;;;;;;11.25;2.58;;;23.20;99.90;;;;;;10314222;28;20198;-77
2023/05/13 07:15:07;;;;;;;6.07;2.83;;;23.50;99.90;;;;;;10308278;28;20202;-77
2023/05/13 07:20:29;;;;;;;4.68;2.75;;;23.70;99.90;;;;;;10313968;28;20524;-78
2023/05/13 07:25:51;;;;;;;3.88;2.15;;;24.10;99.90;;;;;;10299871;28;20269;-77
2023/05/13 07:31:12;;;;;;;5.18;2.30;;;24.40;99.90;;;;;;10286012;28;20206;-76
2023/05/13 07:36:33;;;;;;;6.50;2.20;;;24.70;99.90;;;;;;10307247;28;20202;-77
2023/05/13 07:41:54;;;;;;;4.03;2.08;;;25.00;99.90;;;;;;10312418;28;20218;-77
2023/05/13 07:47:15;;;;;;;4.57;2.35;;;25.10;99.90;;;;;;10305452;28;20336;-76
2023/05/13 07:52:37;;;;;;;3.63;2.20;;;25.50;99.90;;;;;;10312255;28;20270;-78
2023/05/13 07:57:58;;;;;;;5.95;2.00;;;26.20;99.90;;;;;;10307125;28;20275;-77
2023/05/13 08:03:19;;;;;;;5.43;2.00;;;26.00;99.90;;;;;;10304754;28;20277;-77
2023/05/13 08:08:40;;;;;;;3.45;2.40;;;26.40;1.00;;;;;;10279442;28;20214;-78
2023/05/13 08:14:01;;;;;;;5.97;2.40;;;26.40;1.00;;;;;;10247806;29;20242;-76
2023/05/13 08:19:23;;;;;;;6.22;2.60;;;26.40;1.00;;;;;;10279082;28;20463;-78
2023/05/13 08:24:44;;;;;;;10.73;3.38;;;26.40;1.00;;;;;;10278756;28;20297;-78
2023/05/13 08:30:05;;;;;;;5.38;2.47;;;26.50;1.00;;;;;;10299441;28;20223;-78
2023/05/13 08:35:26;;;;;;;11.43;3.95;;;26.70;1.00;;;;;;10284413;28;20278;-77
2023/05/13 08:40:47;;;;;;;6.50;3.00;;;26.90;1.00;;;;;;10300810;28;20269;-79
2023/05/13 08:46:10;;;;;;;6.97;2.15;;;26.80;99.90;;;;;;10288640;28;20241;-78
2023/05/13 08:51:32;;;;;;;5.95;2.42;;;27.30;99.90;;;;;;10318914;28;20217;-78
2023/05/13 08:56:53;;;;;;;13.63;2.70;;;27.10;99.90;;;;;;10307922;28;20233;-76
2023/05/13 09:02:14;;;;;;;3.55;2.30;;;27.10;99.90;;;;;;10242332;29;20342;-77
2023/05/13 09:07:37;;;;;;;9.55;2.30;;;27.20;99.90;;;;;;10291705;28;20208;-76
2023/05/13 09:13:00;;;;;;;6.20;2.05;;;27.70;99.90;;;;;;10318324;28;20274;-77
2023/05/13 09:18:30;;;;;;;8.63;2.15;;;28.30;99.90;;;;;;10312540;28;20513;-78
2023/05/13 09:24:11;;;;;;;6.97;2.10;;;;;;;;;;10318172;28;20264;-77
2023/05/13 09:29:33;;;;;;;6.13;2.00;;;28.40;99.90;;;;;;10298285;28;20519;-76
2023/05/13 09:34:54;;;;;;;4.88;2.28;;;28.40;99.90;;;;;;10278507;28;20191;-77
2023/05/13 09:40:17;;;;;;;3.20;2.10;;;28.50;99.90;;;;;;10308047;28;20218;-76
2023/05/13 09:45:38;;;;;;;7.45;2.42;;;;;;;;;;10276269;29;20219;-78
2023/05/13 09:50:59;;;;;;;7.40;2.10;;;28.70;99.90;;;;;;10281192;28;20227;-78
2023/05/13 09:56:22;;;;;;;3.42;2.10;;;28.00;99.90;;;;;;10278122;28;20214;-79
2023/05/13 10:01:45;;;;;;;3.83;2.08;;;28.30;99.90;;;;;;10316685;28;20222;-77
2023/05/13 10:07:08;;;;;;;3.40;2.25;;;28.30;99.90;;;;;;10242694;28;20217;-78
2023/05/13 10:12:32;;;;;;;4.13;2.50;;;27.30;99.90;;;;;;10261131;29;20242;-78
2023/05/13 10:17:53;;;;;;;4.22;2.00;;;26.20;99.90;;;;;;10283044;28;20392;-77
2023/05/13 10:23:15;;;;;;;4.75;2.42;;;25.70;99.90;;;;;;10315104;28;20260;-78
2023/05/13 10:28:37;;;;;;;4.53;2.22;;;25.90;99.90;;;;;;10281320;28;20205;-77
2023/05/13 10:33:59;;;;;;;5.57;2.22;;;26.60;99.90;;;;;;10275561;28;20191;-77
2023/05/13 10:39:47;;;;;;;2.78;1.95;;;26.50;99.90;;;;;;10294649;28;20493;-76
2023/05/13 10:45:09;;;;;;;4.75;2.10;;;26.40;99.90;;;;;;10278794;28;20209;-78
2023/05/13 10:50:31;;;;;;;4.03;2.53;;;26.20;99.90;;;;;;10301886;28;20286;-77
2023/05/13 10:55:54;;;;;;;4.82;2.40;;;26.30;99.90;;;;;;10314411;28;20190;-77
2023/05/13 11:01:30;;;;;;;5.40;2.25;;;26.00;99.90;;;;;;10307864;28;20252;-77
2023/05/13 11:06:51;;;;;;;5.82;2.25;;;25.70;1.00;;;;;;10239903;28;20204;-77
2023/05/13 11:12:14;;;;;;;4.68;2.00;;;26.10;1.00;;;;;;10275542;28;20209;-77
2023/05/13 11:17:36;;;;;;;5.93;2.33;;;26.90;1.00;;;;;;10278184;28;20285;-78
2023/05/13 11:22:57;;;;;;;3.78;2.33;;;27.50;1.00;;;;;;10313984;28;20218;-78
2023/05/13 11:28:53;;;;;;;4.05;2.00;;;26.90;1.00;;;;;;10302999;28;20435;-78
2023/05/13 11:34:17;;;;;;;3.13;2.28;;;26.10;99.90;;;;;;10272433;29;20254;-78
2023/05/13 11:39:40;;;;;;;6.13;2.30;;;26.10;1.00;;;;;;10298726;28;20265;-77
2023/05/13 11:45:01;;;;;;;2.53;1.80;;;;;;;;;;10293380;28;20234;-77
2023/05/13 11:50:26;;;;;;;6.68;1.92;;;;;;;;;;10306632;28;20209;-78
2023/05/13 11:55:48;;;;;;;6.05;2.03;;;;;;;;;;10336051;28;20631;-77
2023/05/13 12:01:16;;;;;;;3.88;2.20;;;;;;;;;;10314052;28;20230;-77
2023/05/13 12:06:47;;;;;;;6.35;2.65;;;25.10;99.90;;;;;;10282946;28;20207;-77
2023/05/13 12:12:08;;;;;;;4.35;2.88;;;24.90;99.90;;;;;;10284223;28;20241;-76
2023/05/13 12:17:31;;;;;;;12.20;2.67;;;24.70;99.90;;;;;;10280149;28;20215;-76
2023/05/13 12:22:55;;;;;;;3.97;2.65;;;25.20;99.90;;;;;;10312885;28;20536;-77
2023/05/13 12:28:21;;;;;;;5.07;2.38;;;26.20;99.90;;;;;;10314532;28;20199;-77
2023/05/13 12:33:45;;;;;;;6.85;2.55;;;26.10;99.90;;;;;;10279454;28;20429;-79
2023/05/13 12:39:08;;;;;;;5.47;2.78;;;26.00;99.90;;;;;;10281723;28;20233;-77
2023/05/13 12:44:30;;;;;;;4.20;2.72;;;26.20;1.00;;;;;;10312506;28;20501;-78
2023/05/13 12:49:57;;;;;;;3.33;2.33;;;25.60;1.00;;;;;;10275086;28;20209;-78
2023/05/13 12:55:18;;;;;;;10.80;2.58;;;24.70;1.00;;;;;;10277682;28;20226;-77
2023/05/13 13:00:39;;;;;;;7.65;2.80;;;23.90;99.90;;;;;;10318306;28;20523;-77
2023/05/13 13:06:00;;;;;;;3.50;2.40;;;23.30;99.90;;;;;;10286674;28;20234;-79
2023/05/13 13:11:21;;;;;;;3.17;2.60;;;23.30;99.90;;;;;;10257717;29;20199;-77
2023/05/13 13:16:43;;;;;;;8.30;3.83;;;23.60;99.90;;;;;;10279522;28;20436;-77
2023/05/13 13:22:04;;;;;;;5.47;2.85;;;23.80;99.90;;;;;;10307372;28;20397;-77
2023/05/13 13:27:25;;;;;;;5.82;2.22;;;24.10;1.00;;;;;;10311473;28;20234;-78
2023/05/13 13:32:46;;;;;;;6.75;2.42;;;24.30;1.00;;;;;;10223060;29;20223;-78
2023/05/13 13:38:07;;;;;;;4.45;2.72;;;24.80;99.90;;;;;;10284268;28;20507;-78
2023/05/13 13:43:28;;;;;;;9.10;2.65;;;25.10;1.00;;;;;;10301924;28;20226;-79
2023/05/13 13:48:49;;;;;;;5.10;3.20;;;24.90;1.00;;;;;;10277096;28;20425;-77
2023/05/13 13:54:10;;;;;;;4.68;3.13;;;25.00;1.00;;;;;;10276760;28;20707;-78
2023/05/13 13:59:31;;;;;;;5.40;2.67;;;25.30;1.00;;;;;;10301755;28;20230;-78
2023/05/13 14:04:52;;;;;;;3.25;2.47;;;24.90;1.00;;;;;;10292897;28;20383;-78
2023/05/13 14:10:13;;;;;;;5.63;2.60;;;24.50;1.00;;;;;;10297127;28;20396;-77
2023/05/13 14:15:37;;;;;;;4.78;2.63;;;24.10;1.00;;;;;;10275014;28;20440;-78
2023/05/13 14:20:58;;;;;;;9.43;3.28;;;23.70;1.00;;;;;;10290740;28;20287;-76
2023/05/13 14:26:20;;;;;;;4.38;2.92;;;23.30;1.00;;;;;;10278287;28;20246;-79
2023/05/13 14:31:40;;;;;;;10.88;3.33;;;23.30;1.00;;;;;;10283278;28;20199;-78
2023/05/13 14:37:02;;;;;;;7.18;3.63;;;23.20;1.00;;;;;;10283566;28;20206;-78
2023/05/13 14:42:23;;;;;;;9.98;3.30;;;23.10;1.00;;;;;;10314652;28;20222;-78
2023/05/13 14:47:44;;;;;;;9.50;3.55;;;23.20;1.00;;;;;;10288148;28;20194;-77
2023/05/13 14:53:04;;;;;;;6.10;3.10;;;23.40;99.90;;;;;;10314689;28;20233;-77
2023/05/13 14:58:25;;;;;;;7.32;2.47;;;23.50;99.90;;;;;;10308670;28;20547;-77
2023/05/13 15:03:46;;;;;;;4.95;2.83;;;23.40;1.00;;;;;;10298162;28;20293;-78
2023/05/13 15:09:07;;;;;;;7.47;3.80;;;23.40;99.90;;;;;;10236896;29;20198;-78
2023/05/13 15:14:28;;;;;;;5.80;2.63;;;23.40;99.90;;;;;;10292915;28;20403;-79
2023/05/13 15:19:49;;;;;;;7.18;2.85;;;23.30;1.00;;;;;;10322350;28;20411;-80
2023/05/13 15:25:10;;;;;;;6.97;2.92;;;23.20;1.00;;;;;;10315875;28;20242;-77
2023/05/13 15:30:35;;;;;;;5.05;2.83;;;23.10;1.00;;;;;;10321877;28;20209;-77
2023/05/13 15:35:56;;;;;;;5.63;2.65;;;23.00;1.00;;;;;;10315182;28;20277;-79
2023/05/13 15:41:17;;;;;;;6.13;3.50;;;22.80;99.90;;;;;;10325964;28;20285;-77
2023/05/13 15:46:40;;;;;;;4.03;2.78;;;22.80;99.90;;;;;;10293939;28;20199;-78
2023/05/13 15:52:04;;;;;;;3.88;2.40;;;22.80;99.90;;;;;;10281137;29;20210;-77
2023/05/13 15:57:26;;;;;;;6.18;3.38;;;22.90;99.90;;;;;;10278177;28;20199;-77
2023/05/13 16:02:47;;;;;;;6.10;2.70;;;22.90;1.00;;;;;;10274012;29;20220;-77
2023/05/13 16:08:08;;;;;;;4.93;2.83;;;22.80;99.90;;;;;;10240695;29;20270;-76
2023/05/13 16:13:29;;;;;;;4.10;2.33;;;22.70;99.90;;;;;;10280575;28;20285;-79
2023/05/13 16:18:50;;;;;;;5.25;3.17;;;22.60;99.90;;;;;;10318959;28;20194;-79
2023/05/13 16:24:11;;;;;;;7.32;3.03;;;22.20;99.90;;;;;;10313676;28;20238;-78
2023/05/13 16:29:32;;;;;;;5.78;3.20;;;21.80;99.90;;;;;;10298494;28;20266;-78
2023/05/13 16:34:53;;;;;;;5.68;3.40;;;21.50;99.90;;;;;;10307005;28;20206;-76
2023/05/13 16:40:15;;;;;;;10.30;3.40;;;21.30;99.90;;;;;;10318982;28;20507;-78
2023/05/13 16:45:38;;;;;;;6.70;3.70;;;21.30;99.90;;;;;;10312889;28;20226;-79
2023/05/13 16:50:59;;;;;;;5.15;3.10;;;21.20;99.90;;;;;;10316900;28;20485;-77
2023/05/13 16:56:20;;;;;;;4.30;3.30;;;21.20;99.90;;;;;;10316451;28;20285;-79
2023/05/13 17:01:41;;;;;;;6.40;4.18;;;21.20;99.90;;;;;;10310853;28;20299;-76
2023/05/13 17:07:02;;;;;;;9.15;4.70;;;21.20;99.90;;;;;;10274452;29;20498;-76
2023/05/13 17:12:23;;;;;;;16.65;11.05;;;21.20;99.90;;;;;;10284394;28;20240;-78
2023/05/13 17:17:44;;;;;;;21.48;11.20;;;21.10;1.00;;;;;;10317895;28;20396;-77
2023/05/13 17:23:06;;;;;;;8.18;4.45;;;21.00;1.00;;;;;;10291523;28;20234;-78
2023/05/13 17:28:27;;;;;;;5.82;3.72;;;20.70;99.90;;;;;;10310627;28;20198;-76
2023/05/13 17:33:48;;;;;;;4.85;3.20;;;20.70;99.90;;;;;;10309130;28;20439;-78
2023/05/13 17:39:11;;;;;;;5.97;3.00;;;20.60;1.00;;;;;;10285832;28;20274;-77
2023/05/13 17:44:32;;;;;;;6.07;3.15;;;20.60;1.00;;;;;;10298761;28;20222;-77
2023/05/13 17:49:52;;;;;;;4.75;3.72;;;20.50;1.00;;;;;;10315443;28;20286;-77
2023/05/13 17:55:13;;;;;;;11.90;7.20;;;20.50;1.00;;;;;;10307179;28;20213;-79
2023/05/13 18:00:34;;;;;;;7.93;5.43;;;20.40;99.90;;;;;;10316297;28;20193;-80
2023/05/13 18:05:56;;;;;;;8.57;4.57;;;20.20;99.90;;;;;;10247489;28;20279;-79
2023/05/13 18:11:16;;;;;;;11.02;5.80;;;20.10;99.90;;;;;;10253959;28;20564;-78
2023/05/13 18:16:37;;;;;;;9.75;4.43;;;19.90;99.90;;;;;;10280356;28;20205;-78
2023/05/13 18:21:58;;;;;;;7.03;3.85;;;19.70;99.90;;;;;;10274008;28;20222;-76
2023/05/13 18:27:20;;;;;;;10.20;4.35;;;19.70;99.90;;;;;;10310225;28;20230;-76
2023/05/13 18:32:41;;;;;;;7.47;3.92;;;19.60;99.90;;;;;;10279655;28;20571;-76
2023/05/13 18:38:02;;;;;;;5.13;4.20;;;19.40;99.90;;;;;;10315156;28;20198;-76
2023/05/13 18:43:24;;;;;;;6.28;4.50;;;19.30;99.90;;;;;;10307836;28;20273;-76
2023/05/13 18:48:45;;;;;;;7.10;4.43;;;19.20;99.90;;;;;;10300364;28;20202;-76
2023/05/13 18:54:06;;;;;;;8.07;4.72;;;19.20;99.90;;;;;;10274609;28;20386;-77
2023/05/13 18:59:27;;;;;;;7.60;4.32;;;19.10;99.90;;;;;;10281121;28;20580;-76
2023/05/13 19:04:48;;;;;;;6.65;3.58;;;19.00;99.90;;;;;;10291649;28;20222;-76
2023/05/13 19:10:09;;;;;;;11.90;5.28;;;18.90;99.90;;;;;;10275189;28;20229;-77
2023/05/13 19:15:30;;;;;;;7.40;4.38;;;18.80;99.90;;;;;;10274179;28;20219;-79
2023/05/13 19:20:51;;;;;;;6.70;3.92;;;18.70;99.90;;;;;;10291464;28;20418;-77
2023/05/13 19:26:12;;;;;;;8.02;4.22;;;18.70;99.90;;;;;;10307953;28;20317;-78
2023/05/13 19:31:33;;;;;;;4.47;3.30;;;18.60;99.90;;;;;;10282831;28;20543;-77
2023/05/13 19:36:54;;;;;;;7.10;3.78;;;18.50;99.90;;;;;;10286134;28;20206;-79
2023/05/13 19:42:15;;;;;;;5.50;4.13;;;18.50;99.90;;;;;;10313555;28;20229;-78
2023/05/13 19:47:37;;;;;;;10.07;4.85;;;18.40;99.90;;;;;;10307133;28;20496;-78
2023/05/13 19:52:58;;;;;;;9.40;5.35;;;18.30;99.90;;;;;;10313406;28;20241;-78
2023/05/13 19:58:19;;;;;;;8.68;5.95;;;18.30;99.90;;;;;;10308308;28;20203;-78
2023/05/13 20:03:40;;;;;;;8.70;5.07;;;18.20;99.90;;;;;;10306049;28;20278;-77
2023/05/13 20:09:01;;;;;;;7.30;4.93;;;18.20;99.90;;;;;;10305984;28;20290;-76
2023/05/13 20:14:26;;;;;;;6.55;4.25;;;18.10;99.90;;;;;;10305219;28;20462;-77
2023/05/13 20:19:48;;;;;;;8.70;4.57;;;18.00;99.90;;;;;;10319201;28;20202;-76
2023/05/13 20:25:09;;;;;;;7.35;4.53;;;17.90;99.90;;;;;;10313911;28;20246;-76
2023/05/13 20:30:30;;;;;;;7.03;4.50;;;17.80;99.90;;;;;;10295396;28;20274;-77
2023/05/13 20:35:51;;;;;;;9.55;6.10;;;17.80;99.90;;;;;;10279204;28;20195;-77
2023/05/13 20:41:12;;;;;;;12.63;7.30;;;17.80;99.90;;;;;;10248399;28;20241;-78
2023/05/13 20:46:33;;;;;;;11.93;6.45;;;17.70;99.90;;;;;;10318919;28;20432;-75
2023/05/13 20:51:59;;;;;;;13.00;6.35;;;17.60;99.90;;;;;;10298676;28;20206;-76
2023/05/13 20:57:20;;;;;;;10.95;6.80;;;17.60;99.90;;;;;;10319475;28;20195;-76
2023/05/13 21:02:41;;;;;;;9.50;5.85;;;17.50;99.90;;;;;;10307536;28;20222;-75
2023/05/13 21:08:02;;;;;;;7.28;5.00;;;17.40;99.90;;;;;;10278840;28;20222;-75
2023/05/13 21:13:24;;;;;;;6.07;4.65;;;17.40;99.90;;;;;;10299984;28;20234;-78
2023/05/13 21:18:46;;;;;;;8.73;4.90;;;17.30;99.90;;;;;;10318199;28;20383;-76
2023/05/13 21:24:07;;;;;;;6.85;4.57;;;17.20;99.90;;;;;;10312476;28;20272;-75
2023/05/13 21:29:29;;;;;;;8.95;5.90;;;17.00;99.90;;;;;;10303636;28;20199;-77
2023/05/13 21:34:50;;;;;;;9.50;6.90;;;16.90;99.90;;;;;;10306716;28;20215;-76
2023/05/13 21:40:11;;;;;;;10.88;7.88;;;16.80;99.90;;;;;;10317775;28;20220;-78
2023/05/13 21:45:32;;;;;;;13.50;8.20;;;16.70;99.90;;;;;;10311329;28;20230;-77
2023/05/13 21:50:52;;;;;;;14.10;9.40;;;16.60;99.90;;;;;;10314050;28;20218;-77
2023/05/13 21:56:13;;;;;;;10.80;8.38;;;16.60;99.90;;;;;;10306508;28;20203;-77
2023/05/13 22:01:35;;;;;;;11.82;8.13;;;16.40;99.90;;;;;;10311407;28;20203;-76
2023/05/13 22:06:56;;;;;;;13.70;7.57;;;16.30;99.90;;;;;;10276933;28;20203;-75
2023/05/13 22:12:17;;;;;;;8.50;6.28;;;16.10;99.90;;;;;;10274950;28;20199;-75
2023/05/13 22:17:38;;;;;;;12.63;7.10;;;16.10;99.90;;;;;;10283769;28;20195;-76
2023/05/13 22:22:59;;;;;;;13.73;9.05;;;15.90;99.90;;;;;;10277406;28;20237;-76
2023/05/13 22:28:21;;;;;;;14.57;9.65;;;15.80;99.90;;;;;;10309376;28;20222;-77
2023/05/13 22:33:43;;;;;;;37.17;20.13;;;15.70;99.90;;;;;;10293317;28;20249;-77
2023/05/13 22:39:04;;;;;;;29.20;15.35;;;15.60;99.90;;;;;;10315338;28;20480;-77
2023/05/13 22:44:25;;;;;;;16.98;10.77;;;15.40;99.90;;;;;;10296004;28;20273;-76
2023/05/13 22:49:46;;;;;;;15.10;9.05;;;15.40;99.90;;;;;;10305313;28;20191;-76
2023/05/13 22:55:07;;;;;;;17.20;11.93;;;15.40;1.00;;;;;;10314807;28;20256;-75
2023/05/13 23:00:28;;;;;;;22.45;9.82;;;15.20;1.00;;;;;;10307580;28;20209;-77
2023/05/13 23:05:50;;;;;;;13.85;8.68;;;15.10;1.00;;;;;;10283753;28;20433;-76
2023/05/13 23:11:11;;;;;;;14.75;8.13;;;15.10;1.00;;;;;;10272964;28;20237;-78
2023/05/13 23:16:32;;;;;;;12.95;8.77;;;15.10;1.00;;;;;;10273957;29;20196;-79
2023/05/13 23:21:53;;;;;;;12.85;8.40;;;15.00;1.00;;;;;;10289116;28;20209;-76
2023/05/13 23:27:13;;;;;;;12.75;8.77;;;15.00;1.00;;;;;;10309940;28;20406;-76
2023/05/13 23:32:34;;;;;;;16.63;10.05;;;15.00;1.00;;;;;;10294672;28;20277;-77
2023/05/13 23:37:56;;;;;;;14.80;9.88;;;15.00;1.00;;;;;;10320361;28;20430;-76
2023/05/13 23:43:17;;;;;;;16.83;10.00;;;15.00;1.00;;;;;;10315698;28;20233;-78
2023/05/13 23:48:37;;;;;;;11.73;8.55;;;15.00;1.00;;;;;;10283053;28;20193;-75
2023/05/13 23:53:59;;;;;;;16.83;8.63;;;14.90;1.00;;;;;;10285132;28;20421;-76
2023/05/13 23:59:20;;;;;;;17.23;8.00;;;14.80;1.00;;;;;;10280970;28;20268;-76
